createdAt,value
2019-01-04T00:00:00.861Z,418.10
2019-01-04T00:01:00.827Z,417.74
2019-01-04T00:02:00.818Z,419.14
2019-01-04T00:03:00.958Z,418.97
2019-01-04T00:04:00.801Z,417.51
2019-01-04T00:05:00.796Z,417.99
2019-01-04T00:06:00.772Z,418.08
2019-01-04T00:07:00.801Z,418.05
2019-01-04T00:08:00.763Z,418.52
2019-01-04T00:09:00.738Z,417.74
2019-01-04T00:10:00.730Z,418.30
2019-01-04T00:11:00.716Z,417.40
2019-01-04T00:12:00.738Z,417.92
2019-01-04T00:13:00.707Z,417.19
2019-01-04T00:14:00.703Z,418.16
2019-01-04T00:15:00.702Z,418.15
2019-01-04T00:16:00.689Z,419.62
2019-01-04T00:17:00.674Z,419.38
2019-01-04T00:18:01.484Z,417.88
2019-01-04T00:19:01.408Z,417.58
2019-01-04T00:20:00.649Z,418.48
2019-01-04T00:21:00.640Z,417.61
2019-01-04T00:22:00.611Z,417.25
2019-01-04T00:23:00.627Z,419.75
2019-01-04T00:24:00.599Z,417.83
2019-01-04T00:25:00.584Z,417.57
2019-01-04T00:26:00.544Z,419.18
2019-01-04T00:27:00.581Z,418.31
2019-01-04T00:28:00.555Z,417.29
2019-01-04T00:29:00.595Z,417.63
2019-01-04T00:30:00.548Z,417.91
2019-01-04T00:31:00.511Z,418.52
2019-01-04T00:32:01.393Z,417.50
2019-01-04T00:33:00.515Z,418.29
2019-01-04T00:34:00.498Z,417.01
2019-01-04T00:35:00.488Z,417.91
2019-01-04T00:36:00.497Z,417.74
2019-01-04T00:37:00.441Z,417.42
2019-01-04T00:38:00.515Z,417.99
2019-01-04T00:39:07.525Z,416.67
2019-01-04T00:40:08.460Z,417.59
2019-01-04T00:41:08.446Z,417.08
2019-01-04T00:42:08.441Z,416.61
2019-01-04T00:43:08.480Z,416.90
2019-01-04T00:44:09.094Z,416.11
2019-01-04T00:45:08.430Z,417.44
2019-01-04T00:46:08.377Z,417.09
2019-01-04T00:47:08.407Z,416.86
2019-01-04T00:48:07.411Z,417.14
2019-01-04T00:49:07.422Z,416.89
2019-01-04T00:50:08.418Z,418.96
2019-01-04T00:51:08.367Z,417.60
2019-01-04T00:52:08.329Z,417.76
2019-01-04T00:53:00.397Z,418.90
2019-01-04T00:54:00.317Z,418.04
2019-01-04T00:55:08.324Z,418.25
2019-01-04T00:56:07.361Z,417.40
2019-01-04T00:59:01.498Z,414.90
2019-01-04T01:00:01.396Z,418.75
2019-01-04T01:01:01.374Z,417.55
2019-01-04T01:02:01.439Z,418.41
2019-01-04T01:03:01.341Z,416.74
2019-01-04T01:04:01.912Z,417.56
2019-01-04T01:05:01.327Z,417.99
2019-01-04T01:06:01.320Z,416.98
2019-01-04T01:07:01.288Z,416.68
2019-01-04T01:08:01.251Z,417.92
2019-01-04T01:09:01.262Z,417.38
2019-01-04T01:10:01.253Z,417.15
2019-01-04T01:11:01.875Z,416.70
2019-01-04T01:12:01.988Z,417.02
2019-01-04T01:13:01.251Z,416.76
2019-01-04T01:14:01.263Z,418.36
2019-01-04T01:15:01.201Z,417.39
2019-01-04T01:16:01.197Z,417.18
2019-01-04T01:17:01.185Z,419.14
2019-01-04T01:18:01.188Z,418.24
2019-01-04T01:19:01.186Z,418.09
2019-01-04T01:20:01.127Z,418.47
2019-01-04T01:21:01.915Z,418.00
2019-01-04T01:22:01.135Z,416.76
2019-01-04T01:23:01.201Z,417.71
2019-01-04T01:24:01.137Z,418.65
2019-01-04T01:25:01.119Z,417.88
2019-01-04T01:26:01.078Z,417.99
2019-01-04T01:27:01.112Z,418.09
2019-01-04T01:28:01.077Z,417.75
2019-01-04T01:29:01.091Z,420.80
2019-01-04T01:30:01.077Z,418.07
2019-01-04T01:31:01.036Z,418.08
2019-01-04T01:32:01.019Z,417.25
2019-01-04T01:33:01.006Z,417.27
2019-01-04T01:34:01.046Z,416.65
2019-01-04T01:35:00.991Z,417.91
2019-01-04T01:36:00.974Z,417.75
2019-01-04T01:37:08.023Z,417.22
2019-01-04T01:38:09.359Z,418.67
2019-01-04T01:39:08.648Z,418.11
2019-01-04T01:40:08.093Z,418.04
2019-01-04T01:41:08.527Z,416.77
2019-01-04T01:42:01.070Z,421.27
2019-01-04T01:43:00.980Z,419.97
2019-01-04T01:44:00.931Z,418.91
2019-01-04T01:45:00.878Z,418.02
2019-01-04T01:46:00.883Z,419.85
2019-01-04T01:47:00.883Z,418.65
2019-01-04T01:48:00.870Z,420.55
2019-01-04T01:49:00.878Z,420.97
2019-01-04T01:50:00.820Z,417.96
2019-01-04T01:51:00.826Z,418.77
2019-01-04T01:52:00.812Z,419.10
2019-01-04T01:53:00.817Z,420.56
2019-01-04T01:54:00.840Z,417.94
2019-01-04T01:55:00.752Z,418.63
2019-01-04T01:56:00.767Z,419.48
2019-01-04T01:57:00.742Z,419.21
2019-01-04T01:58:00.751Z,417.42
2019-01-04T01:59:00.769Z,418.60
2019-01-04T02:00:09.575Z,416.59
2019-01-04T02:01:00.849Z,418.63
2019-01-04T02:02:00.710Z,417.86
2019-01-04T02:03:00.717Z,418.75
2019-01-04T02:04:00.700Z,417.18
2019-01-04T02:05:00.686Z,417.59
2019-01-04T02:06:00.640Z,418.08
2019-01-04T02:07:00.628Z,417.91
2019-01-04T02:08:00.631Z,417.93
2019-01-04T02:09:00.631Z,416.58
2019-01-04T02:10:00.611Z,416.61
2019-01-04T02:11:00.601Z,419.71
2019-01-04T02:12:00.598Z,419.16
2019-01-04T02:13:00.590Z,418.90
2019-01-04T02:14:00.584Z,417.11
2019-01-04T02:15:00.567Z,419.94
2019-01-04T02:16:00.562Z,417.12
2019-01-04T02:17:00.561Z,417.55
2019-01-04T02:18:00.555Z,418.88
2019-01-04T02:19:00.545Z,416.73
2019-01-04T02:20:00.504Z,416.52
2019-01-04T02:21:00.496Z,416.68
2019-01-04T02:22:00.501Z,415.57
2019-01-04T02:23:00.491Z,416.71
2019-01-04T02:24:00.494Z,415.73
2019-01-04T02:25:00.454Z,416.54
2019-01-04T02:26:00.441Z,417.07
2019-01-04T02:27:00.447Z,417.95
2019-01-04T02:28:00.443Z,419.11
2019-01-04T02:29:00.449Z,417.73
2019-01-04T02:30:00.678Z,415.87
2019-01-04T02:31:00.386Z,415.97
2019-01-04T02:32:00.445Z,418.50
2019-01-04T02:33:00.381Z,415.68
2019-01-04T02:34:00.395Z,416.88
2019-01-04T02:35:00.352Z,417.70
2019-01-04T02:36:00.342Z,416.32
2019-01-04T02:37:00.322Z,417.22
2019-01-04T02:38:00.316Z,416.68
2019-01-04T02:39:00.325Z,418.13
2019-01-04T02:40:00.326Z,416.20
2019-01-04T02:41:00.281Z,417.69
2019-01-04T02:42:00.276Z,419.73
2019-01-04T02:43:00.255Z,415.44
2019-01-04T02:44:00.272Z,418.35
2019-01-04T02:45:00.333Z,417.21
2019-01-04T02:46:00.224Z,416.04
2019-01-04T02:47:00.221Z,415.60
2019-01-04T02:48:00.205Z,416.40
2019-01-04T02:49:00.203Z,417.19
2019-01-04T02:50:00.199Z,417.62
2019-01-04T02:51:00.193Z,416.58
2019-01-04T02:52:00.170Z,417.18
2019-01-04T02:53:00.147Z,416.25
2019-01-04T02:54:00.145Z,416.84
2019-01-04T02:55:00.244Z,417.75
2019-01-04T02:56:00.130Z,418.16
2019-01-04T02:57:00.146Z,416.69
2019-01-04T02:58:00.114Z,417.41
2019-01-04T02:59:00.112Z,415.83
2019-01-04T03:00:00.159Z,416.45
2019-01-04T03:01:00.082Z,416.45
2019-01-04T03:02:00.072Z,415.76
2019-01-04T03:03:00.044Z,419.10
2019-01-04T03:04:00.054Z,417.20
2019-01-04T03:05:00.289Z,418.07
2019-01-04T03:06:00.016Z,415.77
2019-01-04T03:07:00.003Z,415.84
2019-01-04T03:08:00.026Z,417.13
2019-01-04T03:09:00.537Z,415.85
2019-01-04T03:10:00.021Z,416.15
2019-01-04T03:10:59.957Z,417.78
2019-01-04T03:11:59.966Z,416.48
2019-01-04T03:12:59.969Z,417.40
2019-01-04T03:13:59.959Z,417.52
2019-01-04T03:14:59.966Z,417.83
2019-01-04T03:15:59.940Z,417.19
2019-01-04T03:16:59.901Z,415.58
2019-01-04T03:17:59.885Z,416.67
2019-01-04T03:18:59.887Z,415.96
2019-01-04T03:20:00.079Z,417.45
2019-01-04T03:20:59.858Z,417.66
2019-01-04T03:21:59.841Z,419.57
2019-01-04T03:22:59.833Z,415.77
2019-01-04T03:23:59.856Z,418.06
2019-01-04T03:24:59.835Z,416.34
2019-01-04T03:25:59.800Z,418.97
2019-01-04T03:26:59.819Z,416.99
2019-01-04T03:28:06.871Z,414.81
2019-01-04T03:28:59.780Z,416.33
2019-01-04T03:29:59.821Z,417.56
2019-01-04T03:30:59.813Z,416.68
2019-01-04T03:31:59.752Z,419.75
2019-01-04T03:32:59.724Z,415.84
2019-01-04T03:33:59.710Z,417.94
2019-01-04T03:34:59.723Z,416.58
2019-01-04T03:35:59.713Z,415.79
2019-01-04T03:36:59.713Z,417.29
2019-01-04T03:37:59.699Z,416.77
2019-01-04T03:38:59.696Z,416.86
2019-01-04T03:39:59.698Z,417.37
2019-01-04T03:41:08.694Z,418.94
2019-01-04T03:42:06.708Z,418.27
2019-01-04T03:43:07.725Z,416.40
2019-01-04T03:44:08.210Z,418.44
2019-01-04T03:44:59.677Z,416.94
2019-01-04T03:45:59.588Z,417.79
2019-01-04T03:46:59.578Z,414.88
2019-01-04T03:47:59.580Z,419.04
2019-01-04T03:48:59.585Z,417.78
2019-01-04T03:49:59.620Z,415.88
2019-01-04T03:50:59.529Z,418.82
2019-01-04T03:51:59.584Z,415.08
2019-01-04T03:52:59.519Z,419.25
2019-01-04T03:53:59.519Z,414.62
2019-01-04T03:54:59.536Z,416.86
2019-01-04T03:55:59.479Z,417.61
2019-01-04T03:56:59.467Z,418.33
2019-01-04T03:57:59.477Z,418.48
2019-01-04T03:58:59.458Z,417.33
2019-01-04T03:59:59.488Z,418.62
2019-01-04T04:00:59.450Z,415.84
2019-01-04T04:01:59.430Z,419.12
2019-01-04T04:02:59.411Z,418.97
2019-01-04T04:03:59.416Z,417.60
2019-01-04T04:04:59.419Z,414.89
2019-01-04T04:05:59.402Z,417.34
2019-01-04T04:06:59.375Z,417.71
2019-01-04T04:07:59.364Z,418.92
2019-01-04T04:08:59.357Z,415.80
2019-01-04T04:09:59.348Z,417.97
2019-01-04T04:10:59.330Z,418.75
2019-01-04T04:11:59.330Z,417.17
2019-01-04T04:12:59.317Z,415.02
2019-01-04T04:13:59.311Z,415.67
2019-01-04T04:14:59.306Z,416.37
2019-01-04T04:15:59.301Z,418.80
2019-01-04T04:16:59.288Z,418.07
2019-01-04T04:17:59.323Z,415.73
2019-01-04T04:18:59.252Z,417.04
2019-01-04T04:19:59.272Z,416.08
2019-01-04T04:20:59.262Z,415.51
2019-01-04T04:21:59.217Z,415.06
2019-01-04T04:23:06.310Z,417.37
2019-01-04T04:24:07.346Z,417.09
2019-01-04T04:24:59.313Z,416.62
2019-01-04T04:26:06.286Z,415.76
2019-01-04T04:26:59.161Z,419.90
2019-01-04T04:27:59.184Z,418.13
2019-01-04T04:28:59.201Z,416.89
2019-01-04T04:29:59.135Z,416.29
2019-01-04T04:30:59.140Z,416.28
2019-01-04T04:31:59.085Z,417.49
2019-01-04T04:32:59.084Z,417.43
2019-01-04T04:33:59.081Z,418.17
2019-01-04T04:34:59.086Z,415.96
2019-01-04T04:35:59.090Z,417.23
2019-01-04T04:36:59.056Z,419.80
2019-01-04T04:37:59.035Z,417.54
2019-01-04T04:38:59.043Z,418.25
2019-01-04T04:39:59.038Z,417.37
2019-01-04T04:40:59.016Z,417.16
2019-01-04T04:41:59.019Z,418.35
2019-01-04T04:42:59.007Z,418.37
2019-01-04T04:43:58.991Z,419.31
2019-01-04T04:44:58.972Z,418.18
2019-01-04T04:45:58.995Z,418.04
2019-01-04T04:46:58.953Z,416.99
2019-01-04T04:47:58.950Z,418.67
2019-01-04T04:48:58.933Z,417.66
2019-01-04T04:49:58.921Z,416.93
2019-01-04T04:50:58.934Z,417.15
2019-01-04T04:51:58.893Z,415.94
2019-01-04T04:52:59.659Z,415.95
2019-01-04T04:53:58.891Z,414.99
2019-01-04T04:54:58.915Z,418.44
2019-01-04T04:55:58.912Z,417.96
2019-01-04T04:56:58.841Z,415.30
2019-01-04T04:57:58.866Z,416.17
2019-01-04T04:58:58.853Z,416.45
2019-01-04T04:59:58.826Z,418.75
2019-01-04T05:00:58.841Z,415.03
2019-01-04T05:01:58.807Z,418.70
2019-01-04T05:02:58.781Z,416.09
2019-01-04T05:03:58.773Z,416.95
2019-01-04T05:04:58.761Z,415.38
2019-01-04T05:05:58.787Z,417.25
2019-01-04T05:06:58.750Z,416.54
2019-01-04T05:07:58.721Z,417.52
2019-01-04T05:09:07.351Z,416.07
2019-01-04T05:10:06.775Z,416.65
2019-01-04T05:11:05.808Z,416.05
2019-01-04T05:11:58.725Z,418.53
2019-01-04T05:12:58.682Z,416.13
2019-01-04T05:13:58.692Z,415.32
2019-01-04T05:14:58.653Z,416.95
2019-01-04T05:15:58.666Z,415.94
2019-01-04T05:16:58.645Z,417.34
2019-01-04T05:17:58.644Z,415.87
2019-01-04T05:18:58.652Z,416.56
2019-01-04T05:19:58.609Z,415.79
2019-01-04T05:20:58.605Z,415.44
2019-01-04T05:21:58.578Z,416.07
2019-01-04T05:23:00.351Z,415.02
2019-01-04T05:24:00.350Z,415.74
2019-01-04T05:25:00.376Z,417.13
2019-01-04T05:25:58.576Z,416.92
2019-01-04T05:26:58.537Z,416.00
2019-01-04T05:27:58.526Z,415.95
2019-01-04T05:28:58.545Z,416.65
2019-01-04T05:29:58.503Z,416.68
2019-01-04T05:30:58.512Z,415.99
2019-01-04T05:31:58.471Z,417.65
2019-01-04T05:32:58.457Z,418.46
2019-01-04T05:33:58.462Z,416.78
2019-01-04T05:34:58.448Z,417.27
2019-01-04T05:35:58.454Z,417.32
2019-01-04T05:36:58.448Z,415.93
2019-01-04T05:37:58.405Z,418.51
2019-01-04T05:38:58.401Z,417.92
2019-01-04T05:39:58.423Z,416.17
2019-01-04T05:40:58.403Z,417.40
2019-01-04T05:41:59.362Z,416.07
2019-01-04T05:42:58.351Z,415.94
2019-01-04T05:43:58.347Z,416.24
2019-01-04T05:44:58.350Z,417.40
2019-01-04T05:45:58.359Z,415.23
2019-01-04T05:46:58.313Z,417.87
2019-01-04T05:47:58.316Z,419.42
2019-01-04T05:48:58.305Z,418.96
2019-01-04T05:49:58.826Z,419.26
2019-01-04T05:50:58.317Z,416.20
2019-01-04T05:51:58.253Z,419.05
2019-01-04T05:52:58.249Z,419.39
2019-01-04T05:53:58.247Z,418.03
2019-01-04T05:54:58.265Z,419.28
2019-01-04T05:55:58.245Z,418.98
2019-01-04T05:56:58.241Z,417.83
2019-01-04T05:57:58.223Z,416.47
2019-01-04T05:58:58.191Z,419.73
2019-01-04T05:59:58.192Z,417.27
2019-01-04T06:00:58.202Z,417.01
2019-01-04T06:01:58.157Z,417.23
2019-01-04T06:02:58.157Z,416.93
2019-01-04T06:03:58.170Z,416.73
2019-01-04T06:04:58.121Z,417.69
2019-01-04T06:05:58.117Z,417.60
2019-01-04T06:06:58.095Z,416.30
2019-01-04T06:07:58.104Z,416.81
2019-01-04T06:09:06.210Z,417.98
2019-01-04T06:10:06.478Z,417.19
2019-01-04T06:10:58.103Z,418.47
2019-01-04T06:11:58.055Z,418.33
2019-01-04T06:12:58.061Z,417.18
2019-01-04T06:13:58.021Z,418.62
2019-01-04T06:14:57.998Z,417.03
2019-01-04T06:15:58.050Z,417.35
2019-01-04T06:16:58.037Z,418.48
2019-01-04T06:17:58.000Z,416.28
2019-01-04T06:18:57.985Z,417.95
2019-01-04T06:19:57.985Z,418.92
2019-01-04T06:20:58.384Z,417.64
2019-01-04T06:21:57.972Z,416.45
2019-01-04T06:22:57.945Z,416.86
2019-01-04T06:23:57.971Z,417.60
2019-01-04T06:24:57.925Z,417.98
2019-01-04T06:25:57.950Z,417.20
2019-01-04T06:26:57.914Z,418.05
2019-01-04T06:27:57.868Z,417.34
2019-01-04T06:28:57.861Z,418.92
2019-01-04T06:29:57.859Z,420.07
2019-01-04T06:30:57.876Z,417.66
2019-01-04T06:31:57.847Z,419.86
2019-01-04T06:32:57.850Z,420.48
2019-01-04T06:33:57.882Z,416.70
2019-01-04T06:34:57.831Z,419.00
2019-01-04T06:35:57.824Z,417.82
2019-01-04T06:36:57.815Z,417.59
2019-01-04T06:37:57.807Z,416.91
2019-01-04T06:38:57.785Z,420.09
2019-01-04T06:39:57.760Z,418.52
2019-01-04T06:40:57.759Z,417.46
2019-01-04T06:41:57.755Z,417.26
2019-01-04T06:42:57.740Z,417.49
2019-01-04T06:43:57.742Z,418.44
2019-01-04T06:44:57.702Z,417.01
2019-01-04T06:46:05.403Z,419.10
2019-01-04T06:46:57.778Z,417.34
2019-01-04T06:47:57.707Z,419.10
2019-01-04T06:48:57.663Z,418.70
2019-01-04T06:49:57.656Z,419.51
2019-01-04T06:50:57.676Z,421.18
2019-01-04T06:51:57.623Z,421.12
2019-01-04T06:52:57.617Z,418.12
2019-01-04T06:53:57.622Z,417.66
2019-01-04T06:54:57.609Z,419.03
2019-01-04T06:55:57.590Z,420.10
2019-01-04T06:56:57.619Z,420.64
2019-01-04T06:57:57.555Z,419.41
2019-01-04T06:58:57.568Z,419.94
2019-01-04T06:59:57.539Z,422.38
2019-01-04T07:00:57.570Z,418.30
2019-01-04T07:01:57.583Z,420.01
2019-01-04T07:02:57.546Z,419.19
2019-01-04T07:03:57.493Z,420.63
2019-01-04T07:04:57.504Z,419.38
2019-01-04T07:05:57.504Z,419.05
2019-01-04T07:06:57.506Z,418.10
2019-01-04T07:07:59.398Z,417.92
2019-01-04T07:08:57.494Z,422.22
2019-01-04T07:09:57.444Z,419.33
2019-01-04T07:10:57.488Z,421.08
2019-01-04T07:11:57.450Z,421.95
2019-01-04T07:12:57.445Z,419.45
2019-01-04T07:13:57.397Z,418.68
2019-01-04T07:14:57.366Z,419.43
2019-01-04T07:15:57.370Z,422.64
2019-01-04T07:16:57.394Z,421.42
2019-01-04T07:17:57.349Z,418.45
2019-01-04T07:18:57.365Z,418.44
2019-01-04T07:19:57.339Z,419.96
2019-01-04T07:20:57.332Z,420.92
2019-01-04T07:21:57.326Z,417.75
2019-01-04T07:22:57.289Z,421.07
2019-01-04T07:23:57.290Z,420.24
2019-01-04T07:24:57.308Z,418.68
2019-01-04T07:25:57.269Z,418.74
2019-01-04T07:26:57.406Z,420.12
2019-01-04T07:28:00.905Z,422.85
2019-01-04T07:28:57.248Z,420.98
2019-01-04T07:29:57.230Z,420.57
2019-01-04T07:30:57.228Z,420.10
2019-01-04T07:31:57.215Z,420.66
2019-01-04T07:32:57.190Z,418.90
2019-01-04T07:33:57.206Z,419.67
2019-01-04T07:34:57.201Z,420.33
2019-01-04T07:35:57.165Z,420.72
2019-01-04T07:36:57.179Z,418.89
2019-01-04T07:37:57.153Z,420.54
2019-01-04T07:38:57.174Z,418.60
2019-01-04T07:39:57.134Z,419.41
2019-01-04T07:40:57.120Z,419.29
2019-01-04T07:41:57.118Z,420.01
2019-01-04T07:42:57.145Z,421.37
2019-01-04T07:43:57.126Z,417.53
2019-01-04T07:44:57.072Z,422.08
2019-01-04T07:45:57.069Z,416.95
2019-01-04T07:46:57.071Z,420.92
2019-01-04T07:47:57.041Z,418.58
2019-01-04T07:48:57.034Z,420.69
2019-01-04T07:49:57.034Z,418.45
2019-01-04T07:50:57.011Z,419.92
2019-01-04T07:51:57.036Z,420.26
2019-01-04T07:52:57.005Z,419.92
2019-01-04T07:53:56.971Z,420.20
2019-01-04T07:54:56.969Z,418.79
2019-01-04T07:55:56.962Z,418.41
2019-01-04T07:56:56.979Z,418.82
2019-01-04T07:57:56.952Z,421.45
2019-01-04T07:58:56.916Z,419.17
2019-01-04T07:59:56.932Z,421.79
2019-01-04T08:00:56.905Z,421.44
2019-01-04T08:01:56.906Z,417.38
2019-01-04T08:02:56.879Z,420.88
2019-01-04T08:03:56.876Z,419.52
2019-01-04T08:04:56.879Z,420.63
2019-01-04T08:05:56.884Z,419.58
2019-01-04T08:06:56.862Z,417.91
2019-01-04T08:07:57.386Z,420.23
2019-01-04T08:08:56.823Z,421.33
2019-01-04T08:09:56.810Z,420.74
2019-01-04T08:10:56.811Z,421.94
2019-01-04T08:11:56.836Z,422.08
2019-01-04T08:12:56.764Z,418.72
2019-01-04T08:13:56.748Z,420.45
2019-01-04T08:14:56.760Z,420.67
2019-01-04T08:15:56.746Z,418.88
2019-01-04T08:16:56.753Z,419.14
2019-01-04T08:17:56.713Z,419.36
2019-01-04T08:18:56.712Z,421.63
2019-01-04T08:19:56.800Z,419.88
2019-01-04T08:20:56.696Z,419.10
2019-01-04T08:21:56.721Z,421.89
2019-01-04T08:22:56.656Z,418.04
2019-01-04T08:23:56.656Z,419.91
2019-01-04T08:24:56.644Z,420.34
2019-01-04T08:25:56.691Z,421.14
2019-01-04T08:26:56.662Z,419.65
2019-01-04T08:27:56.627Z,419.85
2019-01-04T08:28:56.647Z,418.25
2019-01-04T08:30:03.681Z,419.15
2019-01-04T08:30:56.606Z,418.32
2019-01-04T08:32:03.658Z,419.74
2019-01-04T08:33:03.627Z,419.15
2019-01-04T08:34:04.607Z,420.13
2019-01-04T08:37:18.017Z,416.11
2019-01-04T08:38:24.866Z,421.02
2019-01-04T08:39:25.835Z,420.65
2019-01-04T08:40:25.783Z,419.24
2019-01-04T08:41:17.761Z,418.75
2019-01-04T08:42:25.860Z,419.27
2019-01-04T08:43:26.358Z,420.17
2019-01-04T08:44:17.729Z,418.61
2019-01-04T08:45:17.712Z,421.07
2019-01-04T08:46:25.317Z,419.51
2019-01-04T08:47:17.767Z,417.85
2019-01-04T08:48:17.705Z,421.04
2019-01-04T08:49:25.543Z,419.12
2019-01-04T08:50:24.773Z,421.99
2019-01-04T08:51:17.684Z,418.93
2019-01-04T08:52:17.728Z,421.05
2019-01-04T08:53:34.782Z,419.98
2019-01-04T08:55:57.231Z,419.22
2019-01-04T08:56:57.137Z,418.01
2019-01-04T08:57:57.088Z,418.68
2019-01-04T08:58:57.072Z,419.65
2019-01-04T08:59:57.171Z,418.75
2019-01-04T09:00:57.058Z,422.43
2019-01-04T09:01:57.095Z,422.67
2019-01-04T09:02:57.031Z,419.46
2019-01-04T09:03:57.602Z,420.10
2019-01-04T09:04:58.583Z,421.39
2019-01-04T09:05:57.044Z,418.50
2019-01-04T09:06:56.994Z,417.32
2019-01-04T09:07:57.006Z,420.39
2019-01-04T09:08:56.992Z,419.30
2019-01-04T09:09:56.954Z,421.41
2019-01-04T09:10:56.996Z,420.21
2019-01-04T09:11:56.957Z,421.63
2019-01-04T09:12:56.985Z,418.72
2019-01-04T09:13:56.948Z,420.18
2019-01-04T09:14:56.941Z,420.96
2019-01-04T09:15:56.967Z,418.44
2019-01-04T09:16:56.912Z,420.28
2019-01-04T09:17:57.698Z,421.19
2019-01-04T09:18:56.910Z,421.88
2019-01-04T09:19:56.923Z,421.58
2019-01-04T09:20:56.873Z,418.74
2019-01-04T09:21:56.855Z,419.84
2019-01-04T09:22:56.903Z,419.58
2019-01-04T09:23:56.831Z,421.74
2019-01-04T09:24:56.817Z,420.15
2019-01-04T09:25:56.827Z,420.54
2019-01-04T09:26:56.832Z,419.90
2019-01-04T09:27:56.834Z,422.13
2019-01-04T09:28:56.773Z,422.81
2019-01-04T09:29:57.526Z,419.74
2019-01-04T09:30:56.845Z,420.20
2019-01-04T09:31:56.785Z,418.94
2019-01-04T09:32:56.777Z,418.02
2019-01-04T09:33:57.134Z,420.58
2019-01-04T09:34:56.775Z,419.59
2019-01-04T09:35:56.722Z,423.67
2019-01-04T09:36:56.708Z,422.86
2019-01-04T09:37:56.721Z,419.11
2019-01-04T09:38:56.695Z,421.89
2019-01-04T09:39:56.653Z,419.49
2019-01-04T09:40:57.610Z,421.44
2019-01-04T09:41:56.635Z,421.93
2019-01-04T09:42:56.659Z,422.43
2019-01-04T09:43:56.670Z,420.54
2019-01-04T09:44:56.649Z,422.38
2019-01-04T09:45:56.590Z,419.47
2019-01-04T09:46:56.590Z,420.41
2019-01-04T09:47:57.139Z,421.31
2019-01-04T09:48:56.604Z,422.29
2019-01-04T09:50:03.769Z,421.90
2019-01-04T09:50:56.598Z,421.83
2019-01-04T09:51:56.729Z,421.62
2019-01-04T09:52:56.602Z,419.37
2019-01-04T09:53:56.599Z,420.07
2019-01-04T09:54:56.560Z,421.29
2019-01-04T09:55:56.480Z,421.52
2019-01-04T09:56:56.483Z,418.71
2019-01-04T09:57:56.537Z,420.82
2019-01-04T09:58:56.464Z,420.86
2019-01-04T09:59:56.474Z,418.71
2019-01-04T10:00:56.473Z,419.86
2019-01-04T10:01:56.427Z,422.44
2019-01-04T10:02:56.464Z,420.50
2019-01-04T10:03:56.424Z,419.59
2019-01-04T10:04:56.403Z,420.17
2019-01-04T10:05:56.381Z,422.02
2019-01-04T10:06:56.399Z,420.48
2019-01-04T10:07:56.419Z,418.48
2019-01-04T10:08:56.355Z,421.71
2019-01-04T10:09:56.361Z,421.77
2019-01-04T10:10:56.355Z,419.69
2019-01-04T10:11:56.327Z,420.58
2019-01-04T10:12:56.388Z,424.00
2019-01-04T10:13:56.322Z,422.27
2019-01-04T10:14:56.299Z,420.72
2019-01-04T10:15:56.287Z,419.96
2019-01-04T10:16:57.181Z,422.51
2019-01-04T10:17:57.650Z,420.50
2019-01-04T10:18:56.801Z,420.92
2019-01-04T10:19:56.234Z,421.60
2019-01-04T10:20:56.285Z,421.70
2019-01-04T10:21:56.211Z,420.18
2019-01-04T10:22:56.229Z,418.46
2019-01-04T10:23:56.251Z,419.64
2019-01-04T10:24:56.232Z,421.08
2019-01-04T10:25:56.228Z,419.90
2019-01-04T10:26:56.188Z,423.02
2019-01-04T10:27:56.227Z,422.16
2019-01-04T10:28:56.185Z,419.10
2019-01-04T10:29:56.141Z,419.14
2019-01-04T10:30:56.689Z,421.72
2019-01-04T10:31:56.156Z,421.23
2019-01-04T10:32:56.131Z,421.65
2019-01-04T10:33:56.170Z,422.20
2019-01-04T10:34:56.106Z,421.64
2019-01-04T10:35:56.104Z,422.82
2019-01-04T10:36:56.098Z,420.74
2019-01-04T10:37:56.116Z,418.88
2019-01-04T10:38:56.118Z,421.72
2019-01-04T10:39:56.104Z,419.85
2019-01-04T10:40:56.973Z,419.91
2019-01-04T10:41:56.050Z,422.01
2019-01-04T10:42:56.558Z,418.32
2019-01-04T10:43:56.032Z,423.43
2019-01-04T10:44:56.055Z,421.65
2019-01-04T10:45:56.039Z,422.02
2019-01-04T10:47:03.761Z,421.31
2019-01-04T10:47:55.976Z,417.73
2019-01-04T10:48:55.972Z,422.58
2019-01-04T10:49:55.922Z,422.42
2019-01-04T10:50:55.930Z,422.40
2019-01-04T10:51:55.918Z,419.47
2019-01-04T10:52:55.919Z,418.84
2019-01-04T10:53:55.879Z,420.17
2019-01-04T10:54:55.946Z,419.39
2019-01-04T10:55:55.858Z,418.84
2019-01-04T10:56:55.848Z,420.53
2019-01-04T10:57:55.854Z,422.45
2019-01-04T10:58:58.674Z,419.22
2019-01-04T10:59:58.685Z,421.93
2019-01-04T11:00:55.867Z,422.91
2019-01-04T11:01:55.804Z,420.16
2019-01-04T11:02:55.807Z,420.38
2019-01-04T11:03:55.801Z,419.96
2019-01-04T11:04:55.751Z,423.27
2019-01-04T11:05:55.757Z,421.42
2019-01-04T11:06:55.764Z,421.18
2019-01-04T11:07:55.741Z,421.16
2019-01-04T11:08:55.744Z,420.35
2019-01-04T11:09:55.749Z,421.05
2019-01-04T11:10:55.776Z,420.07
2019-01-04T11:11:55.818Z,419.34
2019-01-04T11:12:55.703Z,420.75
2019-01-04T11:13:55.697Z,420.34
2019-01-04T11:14:55.742Z,424.54
2019-01-04T11:15:55.751Z,420.68
2019-01-04T11:16:56.788Z,419.83
2019-01-04T11:18:03.403Z,420.20
2019-01-04T11:19:02.739Z,420.28
2019-01-04T11:20:02.744Z,422.06
2019-01-04T11:22:13.560Z,419.27
2019-01-04T11:23:23.598Z,420.40
2019-01-04T11:24:12.849Z,421.22
2019-01-04T11:25:12.723Z,421.33
2019-01-04T11:26:13.461Z,419.50
2019-01-04T11:27:12.837Z,420.10
2019-01-04T11:28:12.659Z,421.53
2019-01-04T11:29:12.624Z,420.50
2019-01-04T11:30:12.633Z,423.20
2019-01-04T11:31:12.654Z,420.50
2019-01-04T11:32:12.753Z,422.30
2019-01-04T11:33:12.589Z,421.21
2019-01-04T11:34:12.585Z,419.27
2019-01-04T11:35:12.567Z,423.51
2019-01-04T11:36:12.573Z,421.23
2019-01-04T11:37:12.581Z,421.95
2019-01-04T11:38:12.589Z,420.88
2019-01-04T11:39:12.537Z,422.44
2019-01-04T11:40:12.540Z,420.65
2019-01-04T11:41:12.612Z,419.98
2019-01-04T11:42:15.220Z,420.36
2019-01-04T11:43:12.556Z,419.44
2019-01-04T11:44:12.492Z,424.03
2019-01-04T11:45:32.434Z,420.27
2019-01-04T11:46:12.966Z,421.09
2019-01-04T11:47:12.700Z,421.70
2019-01-04T11:48:13.330Z,421.03
2019-01-04T11:49:13.361Z,419.59
2019-01-04T11:50:12.483Z,419.02
2019-01-04T11:51:12.429Z,419.78
2019-01-04T11:52:12.395Z,421.33
2019-01-04T11:53:12.500Z,419.97
2019-01-04T11:54:12.420Z,420.61
2019-01-04T11:55:12.402Z,423.38
2019-01-04T11:56:12.349Z,421.67
2019-01-04T11:57:13.296Z,419.13
2019-01-04T11:58:14.241Z,422.03
2019-01-04T11:59:12.531Z,419.72
2019-01-04T12:00:12.375Z,422.64
2019-01-04T12:01:15.688Z,422.07
2019-01-04T12:02:12.766Z,422.32
2019-01-04T12:03:14.475Z,422.64
2019-01-04T12:04:13.147Z,419.85
2019-01-04T12:05:12.267Z,420.08
2019-01-04T12:06:15.138Z,420.75
2019-01-04T12:07:12.256Z,418.72
2019-01-04T12:08:12.263Z,420.63
2019-01-04T12:09:12.222Z,419.64
2019-01-04T12:10:12.427Z,420.78
2019-01-04T12:11:12.187Z,420.45
2019-01-04T12:12:13.139Z,419.31
2019-01-04T12:13:12.184Z,422.32
2019-01-04T12:14:12.200Z,419.85
2019-01-04T12:15:12.141Z,419.73
2019-01-04T12:16:12.144Z,419.37
2019-01-04T12:17:12.130Z,419.69
2019-01-04T12:18:13.058Z,419.89
2019-01-04T12:19:13.066Z,420.34
2019-01-04T12:20:12.109Z,421.29
2019-01-04T12:21:19.681Z,420.83
2019-01-04T12:23:32.074Z,419.04
2019-01-04T12:26:11.748Z,419.44
2019-01-04T12:28:22.156Z,416.91
2019-01-04T12:29:30.165Z,421.08
2019-01-04T12:30:29.799Z,421.17
2019-01-04T12:31:30.054Z,419.96
2019-01-04T12:32:31.775Z,419.38
2019-01-04T12:33:30.157Z,421.18
2019-01-04T12:34:31.059Z,420.92
2019-01-04T12:35:32.704Z,422.74
2019-01-04T12:36:22.589Z,420.07
2019-01-04T12:37:30.382Z,421.98
2019-01-04T12:38:37.728Z,421.17
2019-01-04T12:39:22.557Z,420.09